Time;durP1;ratioP1;P1;durP2;ratioP2;P2;SDS_P1;SDS_P2;PMS_P1;PMS_P2;Temp;Humidity;BMP_temperature;BMP_pressure;BME280_temperature;BME280_humidity;BME280_pressure;Samples;Min_cycle;Max_cycle;Signal;HPM_P1;HPM_P2
2022/04/22 00:02:19;;;;;;;11.60;5.63;;;15.20;69.60;;;;;;4992134;28;20118;-88
2022/04/22 00:04:45;;;;;;;8.68;5.80;;;15.20;69.70;;;;;;4991941;28;20035;-88
2022/04/22 00:07:11;;;;;;;10.55;6.00;;;15.20;69.60;;;;;;4975691;28;20174;-89
2022/04/22 00:09:37;;;;;;;9.18;5.88;;;15.10;69.70;;;;;;4976812;28;20031;-89
2022/04/22 00:12:03;;;;;;;7.82;5.55;;;15.10;69.70;;;;;;4976760;28;20026;-89
2022/04/22 00:14:29;;;;;;;9.07;5.97;;;15.00;69.90;;;;;;4975595;28;20491;-90
2022/04/22 00:16:55;;;;;;;10.98;5.78;;;15.00;70.00;;;;;;4959320;28;20069;-88
2022/04/22 00:19:20;;;;;;;14.15;5.85;;;15.00;70.20;;;;;;4975577;28;20081;-89
2022/04/22 00:21:47;;;;;;;10.55;5.82;;;14.90;70.30;;;;;;4959466;28;20071;-89
2022/04/22 00:24:14;;;;;;;11.15;6.13;;;14.90;70.50;;;;;;4975505;28;20459;-90
2022/04/22 00:26:40;;;;;;;7.82;5.95;;;14.90;70.60;;;;;;4991744;28;20031;-90
2022/04/22 00:29:06;;;;;;;9.30;5.88;;;14.80;71.00;;;;;;4991356;28;20030;-89
2022/04/22 00:31:31;;;;;;;8.40;6.28;;;14.80;71.10;;;;;;4975335;28;20077;-89
2022/04/22 00:33:57;;;;;;;9.35;6.15;;;14.80;71.10;;;;;;4976270;28;20113;-89
2022/04/22 00:36:23;;;;;;;8.88;5.82;;;14.80;71.20;;;;;;4976589;28;20054;-89
2022/04/22 00:38:49;;;;;;;11.80;6.10;;;14.70;71.10;;;;;;4943114;28;20042;-88
2022/04/22 00:41:15;;;;;;;9.07;5.70;;;14.70;71.10;;;;;;4958894;28;20018;-88
2022/04/22 00:43:46;;;;;;;12.85;6.68;;;14.60;71.20;;;;;;4992039;28;20114;-90
2022/04/22 00:46:11;;;;;;;;;;;14.60;71.50;;;;;;4991664;28;20054;-88
2022/04/22 00:48:38;;;;;;;7.45;5.60;;;14.60;71.60;;;;;;4974932;28;19996;-90
2022/04/22 00:51:08;;;;;;;10.93;6.50;;;14.60;71.80;;;;;;4991205;28;20030;-89
2022/04/22 00:53:35;;;;;;;7.80;6.07;;;14.50;72.20;;;;;;4991066;28;20041;-89
2022/04/22 00:56:06;;;;;;;9.90;6.90;;;14.50;72.20;;;;;;4975911;28;20049;-89
2022/04/22 00:58:32;;;;;;;9.30;6.60;;;14.50;72.40;;;;;;4992830;28;20022;-89
2022/04/22 01:00:57;;;;;;;10.68;6.45;;;14.50;72.80;;;;;;4978315;28;20046;-89
2022/04/22 01:03:23;;;;;;;8.73;5.80;;;14.50;72.80;;;;;;4995870;28;20031;-89
2022/04/22 01:11:23;;;;;;;10.05;6.28;;;14.40;73.00;;;;;;5006054;28;20184;-89
2022/04/22 01:13:49;;;;;;;9.48;6.47;;;14.40;73.60;;;;;;4967162;28;20485;-88
2022/04/22 01:16:16;;;;;;;10.88;7.32;;;14.30;73.40;;;;;;4981354;28;20106;-89
2022/04/22 01:18:42;;;;;;;10.80;6.47;;;14.30;73.80;;;;;;4987846;28;20018;-90
2022/04/22 01:21:08;;;;;;;8.60;6.50;;;14.30;74.00;;;;;;4999573;28;20027;-90
2022/04/22 01:23:34;;;;;;;8.40;6.07;;;14.30;74.20;;;;;;4978202;28;20034;-89
2022/04/22 01:26:00;;;;;;;8.80;5.93;;;14.30;74.00;;;;;;4980311;28;20034;-89
2022/04/22 01:28:27;;;;;;;9.75;5.88;;;14.30;74.20;;;;;;4997323;28;20026;-89
2022/04/22 01:30:59;;;;;;;9.98;5.80;;;14.30;74.50;;;;;;4997503;28;20060;-90
2022/04/22 01:33:25;;;;;;;8.93;5.85;;;14.20;74.90;;;;;;4996470;28;20018;-90
2022/04/22 01:35:51;;;;;;;8.35;5.70;;;14.20;74.80;;;;;;4996514;28;20129;-90
2022/04/22 01:38:17;;;;;;;9.80;5.82;;;14.20;74.80;;;;;;4996979;28;20172;-90
2022/04/22 01:40:43;;;;;;;8.90;5.78;;;14.20;75.10;;;;;;4997251;28;20030;-89
2022/04/22 01:43:08;;;;;;;7.45;5.28;;;14.20;75.20;;;;;;4980685;28;20034;-89
2022/04/22 01:45:34;;;;;;;9.23;5.68;;;14.20;75.50;;;;;;4997284;28;20072;-90
2022/04/22 01:48:00;;;;;;;9.55;5.63;;;14.20;75.60;;;;;;4981222;28;20033;-90
2022/04/22 01:50:26;;;;;;;9.52;5.70;;;14.20;75.80;;;;;;4996781;28;20172;-89
2022/04/22 01:52:52;;;;;;;10.35;5.75;;;14.10;75.90;;;;;;4980962;28;20378;-88
2022/04/22 01:55:18;;;;;;;9.93;5.65;;;14.10;76.00;;;;;;4980820;28;20044;-90
2022/04/22 01:57:44;;;;;;;10.48;5.32;;;14.10;75.80;;;;;;4996820;28;20025;-90
2022/04/22 02:00:10;;;;;;;9.68;5.65;;;14.00;75.90;;;;;;4996776;28;20054;-89
2022/04/22 02:02:36;;;;;;;9.15;5.72;;;14.00;76.10;;;;;;4996791;28;20029;-89
2022/04/22 02:05:03;;;;;;;7.30;5.30;;;14.00;76.20;;;;;;5014094;28;20038;-89
2022/04/22 02:07:29;;;;;;;10.80;5.80;;;14.00;76.50;;;;;;5014094;28;20076;-90
2022/04/22 02:09:55;;;;;;;9.40;5.75;;;13.90;76.50;;;;;;4996940;28;20026;-89
2022/04/22 02:12:20;;;;;;;9.73;5.90;;;13.90;76.70;;;;;;4996960;28;20030;-90
2022/04/22 02:14:46;;;;;;;9.13;5.75;;;13.90;76.80;;;;;;4996795;28;20074;-89
2022/04/22 02:17:12;;;;;;;9.45;5.88;;;13.90;76.80;;;;;;4980563;28;20462;-89
2022/04/22 02:19:38;;;;;;;10.48;6.00;;;13.90;77.00;;;;;;5014049;28;20060;-89
2022/04/22 02:22:03;;;;;;;11.20;5.65;;;13.90;77.20;;;;;;4980701;28;20520;-90
2022/04/22 02:24:29;;;;;;;10.98;6.50;;;13.80;77.40;;;;;;4979814;28;20030;-90
2022/04/22 02:29:40;;;;;;;9.40;5.93;;;13.80;77.90;;;;;;4999521;28;20044;-89
2022/04/22 02:32:06;;;;;;;9.52;6.03;;;13.80;78.00;;;;;;4996804;28;20030;-89
2022/04/22 02:34:31;;;;;;;9.05;5.97;;;13.80;78.00;;;;;;4996307;28;20037;-89
2022/04/22 02:36:57;;;;;;;8.07;5.30;;;13.70;78.30;;;;;;4980477;28;20042;-89
2022/04/22 02:39:23;;;;;;;10.93;5.38;;;13.70;79.10;;;;;;4980277;28;20465;-89
2022/04/22 02:47:16;;;;;;;8.98;6.13;;;13.60;78.90;;;;;;4983230;28;20045;-89
2022/04/22 02:49:44;;;;;;;10.93;5.97;;;13.60;79.20;;;;;;4964840;28;20026;-87
2022/04/22 02:52:11;;;;;;;11.00;5.47;;;13.60;79.40;;;;;;4996933;28;20485;-86
2022/04/22 02:54:36;;;;;;;9.00;5.43;;;13.60;79.70;;;;;;4980486;28;20030;-87
2022/04/22 02:57:02;;;;;;;9.50;5.78;;;13.60;79.90;;;;;;4998007;28;20023;-88
2022/04/22 02:59:29;;;;;;;8.23;5.22;;;13.60;80.10;;;;;;4988991;28;20058;-86
2022/04/22 03:01:55;;;;;;;10.98;5.97;;;13.60;80.30;;;;;;4997713;28;20023;-87
2022/04/22 03:04:21;;;;;;;10.32;5.68;;;13.50;80.30;;;;;;4980009;28;20478;-87
2022/04/22 03:06:47;;;;;;;9.45;4.85;;;13.50;80.50;;;;;;4980999;28;20034;-88
2022/04/22 03:09:12;;;;;;;8.20;5.22;;;13.40;80.80;;;;;;4966144;28;20529;-88
2022/04/22 03:11:38;;;;;;;7.97;5.45;;;13.40;81.10;;;;;;4987234;28;20022;-88
2022/04/22 03:14:05;;;;;;;10.50;5.80;;;13.40;81.20;;;;;;4982252;28;20038;-87
2022/04/22 03:16:31;;;;;;;8.93;5.40;;;13.40;81.60;;;;;;4985769;28;20121;-86
2022/04/22 03:18:56;;;;;;;8.57;5.80;;;13.40;81.80;;;;;;5003864;28;20017;-87
2022/04/22 03:21:22;;;;;;;10.80;6.13;;;13.40;82.00;;;;;;4999957;28;20030;-87
2022/04/22 03:23:49;;;;;;;8.80;5.80;;;13.30;82.20;;;;;;4980136;28;20050;-87
2022/04/22 03:26:15;;;;;;;8.82;5.32;;;13.30;82.50;;;;;;5000087;28;20034;-88
2022/04/22 03:28:40;;;;;;;10.75;5.93;;;13.30;82.80;;;;;;5000737;28;20022;-88
2022/04/22 03:31:06;;;;;;;9.82;6.03;;;13.30;83.20;;;;;;5001060;28;20120;-87
2022/04/22 03:33:32;;;;;;;10.68;6.43;;;13.30;83.50;;;;;;4948358;28;20052;-87
2022/04/22 03:35:58;;;;;;;10.43;6.32;;;13.20;83.80;;;;;;4964591;28;20072;-87
2022/04/22 03:38:23;;;;;;;11.55;6.28;;;13.20;84.20;;;;;;4981186;28;20026;-87
2022/04/22 03:40:51;;;;;;;10.98;6.63;;;13.20;84.50;;;;;;4964142;28;20382;-87
2022/04/22 03:43:17;;;;;;;11.38;7.10;;;13.10;84.80;;;;;;4979979;28;20033;-87
2022/04/22 03:45:43;;;;;;;10.88;6.82;;;13.10;85.00;;;;;;4980105;28;20027;-88
2022/04/22 03:48:10;;;;;;;10.60;7.05;;;13.10;85.20;;;;;;4963971;28;20485;-87
2022/04/22 03:50:37;;;;;;;10.98;6.90;;;13.10;85.50;;;;;;4979493;28;20018;-86
2022/04/22 03:53:04;;;;;;;12.65;7.07;;;13.10;85.80;;;;;;4963618;28;20034;-87
2022/04/22 03:55:30;;;;;;;11.05;7.20;;;13.10;86.00;;;;;;4995973;28;20494;-87
2022/04/22 03:58:12;;;;;;;11.68;7.28;;;13.10;86.10;;;;;;4979648;28;20113;-88
2022/04/22 04:00:43;;;;;;;11.55;7.43;;;13.00;86.40;;;;;;4961952;28;20055;-88
2022/04/22 04:03:10;;;;;;;10.50;7.65;;;13.00;86.90;;;;;;4976478;28;20058;-87
2022/04/22 04:05:41;;;;;;;11.85;7.55;;;13.00;87.20;;;;;;4975869;28;20043;-87
2022/04/22 04:08:10;;;;;;;10.18;6.97;;;13.00;87.50;;;;;;4976009;28;20030;-88
2022/04/22 04:16:05;;;;;;;12.52;7.85;;;12.90;88.40;;;;;;4976605;28;20059;-88
2022/04/22 04:18:38;;;;;;;11.07;7.30;;;12.90;88.80;;;;;;4975709;28;20034;-88
2022/04/22 04:23:51;;;;;;;12.63;8.52;;;12.80;89.50;;;;;;4976303;28;20071;-88
2022/04/22 04:26:18;;;;;;;11.10;7.90;;;12.80;89.80;;;;;;4975498;28;20042;-87
2022/04/22 04:28:47;;;;;;;12.98;8.88;;;12.80;90.00;;;;;;4975616;28;20030;-87
2022/04/22 04:31:13;;;;;;;11.25;8.32;;;12.80;90.10;;;;;;4975257;28;20101;-87
2022/04/22 04:33:39;;;;;;;11.00;8.20;;;12.80;90.20;;;;;;4975657;28;20566;-88
2022/04/22 04:36:06;;;;;;;11.98;7.75;;;12.70;90.30;;;;;;4975773;28;20038;-88
2022/04/22 04:38:32;;;;;;;11.25;8.00;;;12.70;90.50;;;;;;4975621;28;20023;-88
2022/04/22 04:40:58;;;;;;;12.55;8.95;;;12.70;90.60;;;;;;4959267;28;20039;-88
2022/04/22 04:43:26;;;;;;;12.32;8.77;;;12.70;90.80;;;;;;4977563;28;20027;-88
2022/04/22 04:45:52;;;;;;;12.40;8.68;;;12.60;90.90;;;;;;4978787;28;20458;-89
2022/04/22 04:48:18;;;;;;;11.77;7.97;;;12.60;91.10;;;;;;4986276;28;20039;-88
2022/04/22 04:50:45;;;;;;;12.20;7.93;;;12.60;91.20;;;;;;4971892;28;20039;-87
2022/04/22 04:53:12;;;;;;;11.93;8.80;;;12.60;91.50;;;;;;4983450;28;20035;-88
2022/04/22 04:55:38;;;;;;;12.43;8.20;;;12.60;91.60;;;;;;4974924;28;20106;-88
2022/04/22 04:58:04;;;;;;;11.43;8.05;;;12.60;91.70;;;;;;5007581;28;20030;-88
2022/04/22 05:00:30;;;;;;;13.35;8.80;;;12.60;91.90;;;;;;4985837;28;20166;-87
2022/04/22 05:02:56;;;;;;;12.75;8.88;;;12.60;92.00;;;;;;4979385;28;20027;-88
2022/04/22 05:05:22;;;;;;;11.10;8.15;;;12.50;92.20;;;;;;4977688;28;20519;-89
2022/04/22 05:07:57;;;;;;;13.30;9.02;;;12.50;92.30;;;;;;4979466;28;20105;-87
2022/04/22 05:10:24;;;;;;;13.60;8.68;;;12.50;92.50;;;;;;5003764;28;20041;-88
2022/04/22 05:12:50;;;;;;;13.25;8.95;;;12.50;92.60;;;;;;5008034;28;20036;-89
2022/04/22 05:15:17;;;;;;;11.23;7.90;;;12.50;92.80;;;;;;5010772;28;20036;-90
2022/04/22 05:17:43;;;;;;;11.23;8.38;;;12.50;92.90;;;;;;5002417;28;20395;-90
2022/04/22 05:20:14;;;;;;;13.00;8.48;;;12.40;93.00;;;;;;4999387;28;20022;-87
2022/04/22 05:22:40;;;;;;;13.27;9.07;;;12.40;93.20;;;;;;4994158;28;20023;-88
2022/04/22 05:25:08;;;;;;;11.82;8.88;;;12.50;93.40;;;;;;4994669;28;20481;-87
2022/04/22 05:27:35;;;;;;;14.07;9.50;;;12.40;93.60;;;;;;4999865;28;20481;-87
2022/04/22 05:32:48;;;;;;;11.75;8.50;;;12.40;93.90;;;;;;5006078;28;20033;-88
2022/04/22 05:35:20;;;;;;;10.05;7.72;;;12.40;94.00;;;;;;5002912;28;20052;-88
2022/04/22 05:37:57;;;;;;;11.40;9.10;;;12.40;94.10;;;;;;5005325;28;20442;-87
2022/04/22 05:40:25;;;;;;;10.98;8.38;;;12.30;94.30;;;;;;4996060;28;20038;-87
2022/04/22 05:42:53;;;;;;;11.57;8.93;;;12.30;94.50;;;;;;4992174;28;20466;-88
2022/04/22 05:45:19;;;;;;;11.35;8.77;;;12.30;94.70;;;;;;4976283;28;20398;-89
2022/04/22 05:47:45;;;;;;;14.10;9.30;;;12.30;94.90;;;;;;4992654;28;20521;-88
2022/04/22 05:50:14;;;;;;;12.35;9.20;;;12.30;95.10;;;;;;4992920;28;20023;-88
2022/04/22 05:52:40;;;;;;;11.77;9.38;;;12.30;95.20;;;;;;4992599;28;20378;-88
2022/04/22 05:55:09;;;;;;;14.45;9.27;;;12.30;95.30;;;;;;4993177;28;20030;-88
2022/04/22 05:57:35;;;;;;;12.00;8.95;;;12.30;95.40;;;;;;4994792;28;20351;-89
2022/04/22 06:00:07;;;;;;;14.68;9.80;;;12.30;95.60;;;;;;4994051;28;20054;-87
2022/04/22 06:02:32;;;;;;;12.30;10.30;;;12.30;95.70;;;;;;4993597;28;20113;-88
2022/04/22 06:04:58;;;;;;;10.95;9.07;;;12.30;95.90;;;;;;4993849;28;20177;-89
2022/04/22 06:07:24;;;;;;;11.95;9.55;;;12.30;96.00;;;;;;4977318;28;20031;-88
2022/04/22 06:10:49;;;;;;;12.15;9.27;;;12.30;96.10;;;;;;4993433;28;20035;-88
2022/04/22 06:12:44;;;;;;;12.75;8.85;;;12.30;96.30;;;;;;4981243;28;20031;-88
2022/04/22 06:15:10;;;;;;;12.32;9.20;;;12.30;96.40;;;;;;4993075;28;20042;-88
2022/04/22 06:17:35;;;;;;;11.98;9.20;;;12.30;96.60;;;;;;4977754;28;20030;-89
2022/04/22 06:20:01;;;;;;;12.02;8.85;;;12.30;96.70;;;;;;4980134;28;20026;-88
2022/04/22 06:22:27;;;;;;;12.15;9.43;;;12.30;96.90;;;;;;4999233;28;20030;-87
2022/04/22 06:24:54;;;;;;;13.27;9.57;;;12.30;97.00;;;;;;4998376;28;20034;-87
2022/04/22 06:27:28;;;;;;;13.15;10.00;;;12.40;97.20;;;;;;4997387;28;20058;-88
2022/04/22 06:29:55;;;;;;;12.75;9.23;;;12.40;97.20;;;;;;4997395;28;20362;-88
2022/04/22 06:32:22;;;;;;;12.43;9.45;;;12.40;97.30;;;;;;4983261;28;20049;-87
2022/04/22 06:34:49;;;;;;;12.85;10.43;;;12.40;97.40;;;;;;4998525;28;20034;-88
2022/04/22 06:37:16;;;;;;;12.18;9.02;;;12.40;97.60;;;;;;4981074;28;20030;-88
2022/04/22 06:47:55;;;;;;;12.10;9.38;;;12.40;98.10;;;;;;5001775;28;20437;-88
2022/04/22 06:50:22;;;;;;;13.32;10.15;;;12.50;98.30;;;;;;4984759;28;20034;-87
2022/04/22 06:52:48;;;;;;;14.80;9.75;;;12.50;98.70;;;;;;5000812;28;20397;-87
2022/04/22 06:55:15;;;;;;;17.73;11.05;;;12.50;98.50;;;;;;5004920;28;20018;-87
2022/04/22 06:57:48;;;;;;;14.23;10.32;;;12.60;98.60;;;;;;5019191;28;20027;-90
2022/04/22 07:00:15;;;;;;;15.90;11.43;;;12.60;98.60;;;;;;5036793;28;20050;-87
2022/04/22 07:02:41;;;;;;;14.07;10.70;;;12.60;98.70;;;;;;5023869;28;20026;-89
2022/04/22 07:05:07;;;;;;;14.18;10.30;;;12.70;98.80;;;;;;5021868;28;20026;-89
2022/04/22 07:07:33;;;;;;;14.70;10.68;;;12.70;98.70;;;;;;5004320;28;20047;-87
2022/04/22 07:09:59;;;;;;;13.82;10.90;;;12.70;98.80;;;;;;4981575;28;20026;-87
2022/04/22 07:12:27;;;;;;;13.40;10.20;;;12.70;98.90;;;;;;4992955;28;20046;-87
2022/04/22 07:15:06;;;;;;;15.70;10.18;;;12.80;98.90;;;;;;5002990;28;20026;-87
2022/04/22 07:17:36;;;;;;;14.30;10.73;;;12.80;99.10;;;;;;4983300;28;20037;-87
2022/04/22 07:20:13;;;;;;;18.52;11.80;;;12.90;99.10;;;;;;4999703;28;20056;-85
2022/04/22 07:22:41;;;;;;;18.77;10.77;;;12.90;99.10;;;;;;4994056;28;20053;-87
2022/04/22 07:25:08;;;;;;;14.38;10.43;;;13.00;99.10;;;;;;4996129;28;20022;-86
2022/04/22 07:27:36;;;;;;;13.13;10.20;;;13.00;99.10;;;;;;4995403;28;20064;-87
2022/04/22 07:30:04;;;;;;;16.08;11.15;;;13.00;99.20;;;;;;4995459;28;20134;-86
2022/04/22 07:32:29;;;;;;;12.65;9.90;;;13.10;99.20;;;;;;4995649;28;20033;-86
2022/04/22 07:34:55;;;;;;;12.57;10.05;;;13.10;99.10;;;;;;4979484;28;20022;-86
2022/04/22 07:37:22;;;;;;;14.27;9.65;;;13.20;99.30;;;;;;4995955;28;20037;-87
2022/04/22 07:39:49;;;;;;;13.68;10.02;;;13.20;99.50;;;;;;4997424;28;20169;-86
2022/04/22 07:42:18;;;;;;;15.70;11.18;;;13.30;99.50;;;;;;4996600;28;20429;-85
2022/04/22 07:47:32;;;;;;;12.35;9.80;;;13.40;99.60;;;;;;5022739;28;20059;-88
2022/04/22 07:49:59;;;;;;;15.05;10.38;;;13.50;99.60;;;;;;5002137;28;20026;-88
2022/04/22 07:52:24;;;;;;;16.50;10.55;;;13.60;99.50;;;;;;5022139;28;20049;-87
2022/04/22 07:54:50;;;;;;;19.23;11.00;;;13.60;99.20;;;;;;5023886;28;20083;-87
2022/04/22 07:57:15;;;;;;;13.60;9.73;;;13.70;98.80;;;;;;4998174;28;20492;-86
2022/04/22 07:59:44;;;;;;;12.73;9.65;;;13.70;98.50;;;;;;4995479;28;20058;-87
2022/04/22 08:02:10;;;;;;;14.15;9.73;;;13.80;98.70;;;;;;5017389;28;20145;-87
2022/04/22 08:04:36;;;;;;;12.85;9.48;;;13.90;98.80;;;;;;4998801;28;20149;-88
2022/04/22 08:07:05;;;;;;;14.50;9.73;;;13.90;98.80;;;;;;4998435;28;20036;-88
2022/04/22 08:09:31;;;;;;;17.13;10.50;;;14.00;98.70;;;;;;4998772;28;20030;-87
2022/04/22 08:11:56;;;;;;;11.27;9.07;;;14.10;98.60;;;;;;4997861;28;20041;-86
2022/04/22 08:14:23;;;;;;;12.80;9.15;;;14.20;98.50;;;;;;5015504;28;20030;-87
2022/04/22 08:16:49;;;;;;;14.00;9.95;;;14.20;98.40;;;;;;4997875;28;20462;-87
2022/04/22 08:19:15;;;;;;;12.40;9.35;;;14.30;97.90;;;;;;4982100;28;20037;-87
2022/04/22 08:21:40;;;;;;;16.35;8.43;;;14.40;97.60;;;;;;4982323;28;20029;-87
2022/04/22 08:24:10;;;;;;;14.98;9.73;;;14.50;97.70;;;;;;4999529;28;20236;-86
2022/04/22 08:26:36;;;;;;;16.58;9.60;;;14.50;97.30;;;;;;5000409;28;20482;-87
2022/04/22 08:29:02;;;;;;;13.38;9.63;;;14.60;97.30;;;;;;5006173;28;20362;-85
2022/04/22 08:31:28;;;;;;;13.07;9.30;;;14.70;97.10;;;;;;5005832;28;20030;-86
2022/04/22 08:33:56;;;;;;;13.57;9.95;;;14.70;97.00;;;;;;5023416;28;20367;-86
2022/04/22 08:36:22;;;;;;;13.75;8.25;;;14.80;96.70;;;;;;5007891;28;20026;-86
2022/04/22 08:38:48;;;;;;;13.50;9.80;;;14.80;96.40;;;;;;5007457;28;20152;-87
2022/04/22 08:41:15;;;;;;;14.60;9.20;;;14.90;96.30;;;;;;5009978;28;20026;-86
2022/04/22 08:43:42;;;;;;;12.73;9.85;;;15.00;96.20;;;;;;5005677;28;20108;-86
2022/04/22 08:49:58;;;;;;;12.82;8.68;;;15.00;95.80;;;;;;5024079;28;20837;-86
2022/04/22 08:51:44;;;;;;;13.23;9.07;;;15.10;95.30;;;;;;5005563;28;20036;-88
2022/04/22 08:54:13;;;;;;;13.38;8.45;;;15.20;95.10;;;;;;5004879;28;20033;-87
2022/04/22 08:56:39;;;;;;;13.23;8.68;;;15.30;94.60;;;;;;5001894;28;20049;-86
2022/04/22 08:59:05;;;;;;;12.43;8.98;;;15.30;94.50;;;;;;4998535;28;20050;-86
2022/04/22 09:01:31;;;;;;;11.70;7.53;;;15.40;94.60;;;;;;5017670;28;20080;-86
2022/04/22 09:03:57;;;;;;;12.85;8.10;;;15.50;94.70;;;;;;4988206;28;20030;-87
2022/04/22 09:06:26;;;;;;;9.77;7.90;;;15.50;94.50;;;;;;5004615;28;20456;-86
2022/04/22 09:08:55;;;;;;;11.38;7.65;;;15.60;94.40;;;;;;5008072;28;20465;-86
2022/04/22 09:11:21;;;;;;;13.70;8.98;;;15.70;94.20;;;;;;5015804;28;20029;-87
2022/04/22 09:13:46;;;;;;;12.32;8.15;;;15.80;93.90;;;;;;5030080;28;20033;-86
2022/04/22 09:16:22;;;;;;;11.07;7.20;;;15.90;93.30;;;;;;5019659;28;20033;-88
2022/04/22 09:18:57;;;;;;;10.88;7.28;;;15.90;93.10;;;;;;5017703;28;20116;-87
2022/04/22 09:21:24;;;;;;;11.95;6.95;;;16.00;92.90;;;;;;5017938;28;20068;-86
2022/04/22 09:23:50;;;;;;;10.90;7.45;;;16.10;92.90;;;;;;5034224;28;20026;-87
2022/04/22 09:26:30;;;;;;;10.90;7.57;;;16.10;92.60;;;;;;5034514;28;20029;-87
2022/04/22 09:29:00;;;;;;;9.88;7.00;;;16.20;92.20;;;;;;5016250;28;20071;-87
2022/04/22 09:31:27;;;;;;;9.95;6.47;;;16.20;92.10;;;;;;5033629;28;20030;-86
2022/04/22 09:33:54;;;;;;;10.13;6.55;;;16.30;92.10;;;;;;5012718;28;20095;-87
2022/04/22 09:45:04;;;;;;;12.02;7.13;;;16.50;91.30;;;;;;5014080;28;20036;-86
2022/04/22 09:47:33;;;;;;;12.23;6.70;;;16.60;91.10;;;;;;5032664;28;20052;-87
2022/04/22 09:50:05;;;;;;;10.07;6.45;;;16.70;90.70;;;;;;5023095;28;20025;-87
2022/04/22 09:52:34;;;;;;;8.88;6.43;;;16.70;90.60;;;;;;5018522;28;20480;-87
2022/04/22 09:55:07;;;;;;;8.75;5.80;;;16.70;90.40;;;;;;4997805;28;20037;-88
2022/04/22 09:57:53;;;;;;;9.85;5.93;;;16.80;90.10;;;;;;5004025;28;20445;-88
2022/04/22 10:00:20;;;;;;;9.23;5.97;;;16.80;90.00;;;;;;4996092;28;20053;-87
2022/04/22 10:02:51;;;;;;;13.27;6.90;;;16.90;89.70;;;;;;4995269;28;20050;-87
2022/04/22 10:05:21;;;;;;;;;;;16.90;89.50;;;;;;5006098;28;20359;-87
2022/04/22 10:07:50;;;;;;;8.35;5.40;;;17.00;88.80;;;;;;5016164;28;19916;-88
2022/04/22 10:10:19;;;;;;;7.82;5.63;;;17.00;88.60;;;;;;4999811;28;20029;-86
2022/04/22 10:12:48;;;;;;;8.25;5.35;;;17.00;88.80;;;;;;5019513;28;20101;-87
2022/04/22 10:15:17;;;;;;;10.25;5.95;;;17.00;88.40;;;;;;5013089;28;20022;-87
2022/04/22 10:17:44;;;;;;;11.40;5.50;;;17.10;87.80;;;;;;5002254;28;20097;-87
2022/04/22 10:20:11;;;;;;;8.98;5.93;;;17.10;87.40;;;;;;5029880;28;20535;-86
2022/04/22 10:22:37;;;;;;;9.20;5.63;;;17.10;87.70;;;;;;5032606;28;20041;-86
2022/04/22 10:25:04;;;;;;;11.05;5.75;;;17.10;86.40;;;;;;5032667;28;20033;-86
2022/04/22 10:27:37;;;;;;;9.88;5.63;;;17.10;86.40;;;;;;5033269;28;20084;-86
2022/04/22 10:30:05;;;;;;;7.93;5.45;;;17.10;86.10;;;;;;5015618;28;20060;-86
2022/04/22 10:32:33;;;;;;;8.20;5.72;;;17.10;85.90;;;;;;5000276;28;20412;-86
2022/04/22 10:35:00;;;;;;;10.80;6.10;;;17.20;86.10;;;;;;4998201;28;20456;-87
2022/04/22 10:37:27;;;;;;;9.30;5.50;;;17.20;86.20;;;;;;4997414;28;20029;-86
2022/04/22 10:39:55;;;;;;;8.73;5.72;;;17.20;85.60;;;;;;5030034;28;20050;-87
2022/04/22 10:42:35;;;;;;;8.93;5.43;;;17.20;85.20;;;;;;5029033;28;20024;-87
2022/04/22 10:47:54;;;;;;;9.65;5.43;;;17.30;85.30;;;;;;5042147;28;20267;-88
2022/04/22 10:50:35;;;;;;;7.35;5.00;;;17.40;84.40;;;;;;5000472;28;20015;-86
2022/04/22 10:53:03;;;;;;;11.80;5.75;;;17.40;84.40;;;;;;5019538;28;20034;-91
2022/04/22 10:55:46;;;;;;;8.27;5.30;;;17.40;84.00;;;;;;5017663;28;20038;-86
2022/04/22 10:58:12;;;;;;;8.02;5.22;;;17.50;82.90;;;;;;5017420;28;20025;-87
2022/04/22 11:00:45;;;;;;;8.25;4.55;;;17.50;82.70;;;;;;5021258;28;20041;-87
2022/04/22 11:03:31;;;;;;;8.55;5.07;;;17.50;82.00;;;;;;4980370;28;20180;-88
2022/04/22 11:05:59;;;;;;;8.93;4.78;;;17.50;82.00;;;;;;5017688;28;20496;-88
2022/04/22 11:08:37;;;;;;;7.78;4.95;;;17.50;82.20;;;;;;4999615;28;20022;-87
2022/04/22 11:11:13;;;;;;;9.27;5.22;;;17.50;82.10;;;;;;5004731;28;20543;-87
2022/04/22 11:13:50;;;;;;;7.07;5.22;;;17.60;81.70;;;;;;5032685;28;20018;-88
2022/04/22 11:16:22;;;;;;;8.00;4.97;;;17.60;80.30;;;;;;5031242;28;20022;-86
2022/04/22 11:19:19;;;;;;;8.77;4.80;;;17.60;79.80;;;;;;4998888;28;20574;-86
2022/04/22 11:21:46;;;;;;;10.52;4.53;;;17.70;79.80;;;;;;5021819;28;20018;-87
2022/04/22 11:24:22;;;;;;;8.52;4.53;;;17.70;80.10;;;;;;5008573;28;20038;-86
2022/04/22 11:26:48;;;;;;;7.00;4.47;;;17.80;80.20;;;;;;5019410;28;20109;-92
2022/04/22 11:29:15;;;;;;;7.18;4.20;;;17.80;79.40;;;;;;4983042;28;20029;-88
2022/04/22 11:31:56;;;;;;;5.95;4.45;;;17.90;78.80;;;;;;5017834;28;20025;-87
2022/04/22 11:34:39;;;;;;;12.95;4.47;;;17.90;78.20;;;;;;5014630;28;20022;-88
2022/04/22 11:37:20;;;;;;;9.00;4.68;;;17.90;77.60;;;;;;5015889;28;20165;-86
2022/04/22 11:39:51;;;;;;;5.65;3.78;;;18.00;77.90;;;;;;5017621;28;20034;-87
2022/04/22 11:42:18;;;;;;;14.30;4.35;;;18.00;77.70;;;;;;5015514;28;20026;-87
2022/04/22 11:45:05;;;;;;;7.60;3.83;;;18.00;76.40;;;;;;5015786;28;20045;-87
2022/04/22 11:47:31;;;;;;;6.93;3.40;;;18.00;76.30;;;;;;5016948;28;20026;-87
2022/04/22 11:49:57;;;;;;;5.93;3.38;;;18.00;76.10;;;;;;5016051;28;20477;-87
2022/04/22 11:52:23;;;;;;;6.68;3.38;;;18.10;76.10;;;;;;5015380;28;20033;-87
2022/04/22 11:54:49;;;;;;;8.30;3.53;;;18.10;75.60;;;;;;5017163;28;20033;-87
2022/04/22 11:57:19;;;;;;;7.05;3.47;;;18.10;75.10;;;;;;5015011;28;20025;-87
2022/04/22 12:05:32;;;;;;;9.20;3.40;;;18.10;74.60;;;;;;5014603;28;20061;-87
2022/04/22 12:05:35;;;;;;;6.22;3.33;;;18.20;74.70;;;;;;4986426;28;20066;-88
2022/04/22 12:08:02;;;;;;;5.32;3.40;;;18.20;74.30;;;;;;5015315;28;20045;-87
2022/04/22 12:10:30;;;;;;;6.00;3.25;;;18.20;74.40;;;;;;5016703;28;20022;-86
2022/04/22 12:13:01;;;;;;;5.32;3.33;;;18.30;74.60;;;;;;5017319;28;20037;-88
2022/04/22 12:15:27;;;;;;;6.18;3.30;;;18.20;74.70;;;;;;5015660;28;20187;-88
2022/04/22 12:17:53;;;;;;;9.23;3.75;;;18.20;73.90;;;;;;5015728;28;20026;-88
2022/04/22 12:20:20;;;;;;;5.68;3.70;;;18.30;74.10;;;;;;5016113;28;20026;-88
2022/04/22 12:22:49;;;;;;;10.30;4.20;;;18.30;74.10;;;;;;5016184;28;20021;-87
2022/04/22 12:25:20;;;;;;;11.68;4.55;;;18.30;72.90;;;;;;4998433;28;20038;-87
2022/04/22 12:28:07;;;;;;;;;;;18.40;71.50;;;;;;5014910;28;20540;-88
2022/04/22 12:30:37;;;;;;;6.35;3.78;;;18.40;71.10;;;;;;5013926;28;19905;-87
2022/04/22 12:33:08;;;;;;;6.55;3.97;;;18.30;70.90;;;;;;5014451;28;20113;-88
2022/04/22 12:35:33;;;;;;;4.80;3.60;;;18.40;71.40;;;;;;5015560;28;20117;-88
2022/04/22 12:38:05;;;;;;;7.35;4.82;;;18.40;71.50;;;;;;5014028;28;20104;-87
2022/04/22 12:40:46;;;;;;;9.88;5.57;;;18.50;69.80;;;;;;5014991;28;20026;-87
2022/04/22 12:43:25;;;;;;;6.60;3.90;;;18.60;69.30;;;;;;5003087;28;20033;-88
2022/04/22 12:54:19;;;;;;;;;;;18.80;68.40;;;;;;5011579;28;20108;-89
2022/04/22 12:57:03;;;;;;;6.88;4.45;;;18.80;68.00;;;;;;4999991;28;19905;-89
2022/04/22 12:59:54;;;;;;;10.52;4.45;;;18.90;67.70;;;;;;5028003;28;20060;-91
2022/04/22 13:02:38;;;;;;;7.20;4.07;;;18.80;66.30;;;;;;5000080;28;20093;-92
2022/04/22 13:05:15;;;;;;;6.47;3.72;;;18.80;66.70;;;;;;4992235;28;20029;-91
2022/04/22 13:07:47;;;;;;;6.47;3.67;;;18.80;67.60;;;;;;5002752;28;20029;-91
2022/04/22 13:10:20;;;;;;;7.50;4.00;;;18.90;68.10;;;;;;4995690;28;20484;-91
2022/04/22 13:12:50;;;;;;;6.05;4.07;;;19.00;68.30;;;;;;5021096;28;20022;-91
2022/04/22 13:15:32;;;;;;;6.22;3.70;;;19.10;67.90;;;;;;5018671;28;20136;-90
2022/04/22 13:18:00;;;;;;;8.30;3.50;;;19.30;67.70;;;;;;4986053;28;20025;-90
2022/04/22 13:20:31;;;;;;;8.43;4.00;;;19.30;66.80;;;;;;5003662;28;20052;-92
2022/04/22 13:23:01;;;;;;;;;;;19.40;66.20;;;;;;5001609;28;20017;-92
2022/04/22 13:25:27;;;;;;;7.28;3.88;;;19.40;66.20;;;;;;5010745;28;19916;-91
2022/04/22 13:27:55;;;;;;;6.93;3.72;;;19.40;66.00;;;;;;5007792;28;20025;-91
2022/04/22 13:30:20;;;;;;;5.40;3.38;;;19.30;65.80;;;;;;5006760;28;20098;-90
2022/04/22 13:32:52;;;;;;;5.78;3.47;;;19.30;66.20;;;;;;5004430;28;20102;-92
2022/04/22 13:35:20;;;;;;;7.63;3.92;;;19.30;65.60;;;;;;5030153;28;20110;-91
2022/04/22 13:37:46;;;;;;;6.28;3.80;;;19.30;64.50;;;;;;5005431;28;20022;-92
2022/04/22 13:40:12;;;;;;;5.93;3.78;;;19.20;63.90;;;;;;4999930;28;20049;-91
2022/04/22 13:42:38;;;;;;;7.28;3.70;;;19.20;64.40;;;;;;5020973;28;20064;-91
2022/04/22 13:53:19;;;;;;;8.20;3.67;;;19.20;64.30;;;;;;5015494;28;20057;-88
2022/04/22 13:55:48;;;;;;;5.15;3.60;;;19.20;64.00;;;;;;5015083;28;20022;-89
2022/04/22 13:58:14;;;;;;;6.95;3.58;;;19.30;63.90;;;;;;5010553;28;20010;-88